sensor_id;sensor_type;location;lat;lon;timestamp;pressure;altitude;pressure_sealevel;temperature;humidity
11525;BME280;5819;49.648;8.330;2023-12-22T00:01:36;99102.75;;;5.30;100.00
11525;BME280;5819;49.648;8.330;2023-12-22T00:04:04;99114.88;;;5.28;100.00
11525;BME280;5819;49.648;8.330;2023-12-22T00:06:33;99104.00;;;5.21;100.00
11525;BME280;5819;49.648;8.330;2023-12-22T00:09:03;99130.13;;;5.12;100.00
11525;BME280;5819;49.648;8.330;2023-12-22T00:11:32;99128.94;;;4.99;100.00
11525;BME280;5819;49.648;8.330;2023-12-22T00:14:00;99133.25;;;4.98;100.00
11525;BME280;5819;49.648;8.330;2023-12-22T00:16:28;99124.03;;;4.93;100.00
11525;BME280;5819;49.648;8.330;2023-12-22T00:18:57;99142.13;;;4.91;100.00
11525;BME280;5819;49.648;8.330;2023-12-22T00:21:25;99149.50;;;5.00;100.00
11525;BME280;5819;49.648;8.330;2023-12-22T00:23:54;99153.91;;;5.18;100.00
11525;BME280;5819;49.648;8.330;2023-12-22T00:26:24;99161.53;;;5.22;100.00
11525;BME280;5819;49.648;8.330;2023-12-22T00:28:52;99164.63;;;5.09;100.00
11525;BME280;5819;49.648;8.330;2023-12-22T00:31:21;99151.09;;;5.03;100.00
11525;BME280;5819;49.648;8.330;2023-12-22T00:33:48;99153.03;;;4.98;100.00
11525;BME280;5819;49.648;8.330;2023-12-22T00:36:17;99147.44;;;4.87;100.00
11525;BME280;5819;49.648;8.330;2023-12-22T00:38:49;99136.38;;;4.85;100.00
11525;BME280;5819;49.648;8.330;2023-12-22T00:41:17;99143.47;;;4.78;100.00
11525;BME280;5819;49.648;8.330;2023-12-22T00:43:46;99121.50;;;4.69;100.00
11525;BME280;5819;49.648;8.330;2023-12-22T00:46:14;99117.56;;;4.61;100.00
11525;BME280;5819;49.648;8.330;2023-12-22T00:48:42;99114.47;;;4.51;100.00
11525;BME280;5819;49.648;8.330;2023-12-22T00:51:10;99103.41;;;4.49;100.00
11525;BME280;5819;49.648;8.330;2023-12-22T00:53:38;99104.31;;;4.48;100.00
11525;BME280;5819;49.648;8.330;2023-12-22T00:56:07;99098.06;;;4.54;100.00
11525;BME280;5819;49.648;8.330;2023-12-22T00:58:35;99080.97;;;4.53;100.00
11525;BME280;5819;49.648;8.330;2023-12-22T01:01:05;99095.63;;;4.51;100.00
11525;BME280;5819;49.648;8.330;2023-12-22T01:03:33;99094.94;;;4.46;100.00
11525;BME280;5819;49.648;8.330;2023-12-22T01:06:01;99097.63;;;4.43;100.00
11525;BME280;5819;49.648;8.330;2023-12-22T01:08:29;99093.63;;;4.36;100.00
11525;BME280;5819;49.648;8.330;2023-12-22T01:10:57;99096.06;;;4.39;100.00
11525;BME280;5819;49.648;8.330;2023-12-22T01:13:25;99105.50;;;4.40;100.00
11525;BME280;5819;49.648;8.330;2023-12-22T01:15:53;99103.28;;;4.52;100.00
11525;BME280;5819;49.648;8.330;2023-12-22T01:18:23;99108.63;;;4.69;100.00
11525;BME280;5819;49.648;8.330;2023-12-22T01:20:55;99105.56;;;4.82;100.00
11525;BME280;5819;49.648;8.330;2023-12-22T01:23:24;99086.44;;;5.09;100.00
11525;BME280;5819;49.648;8.330;2023-12-22T01:25:52;99098.06;;;5.19;100.00
11525;BME280;5819;49.648;8.330;2023-12-22T01:28:20;99117.59;;;5.25;100.00
11525;BME280;5819;49.648;8.330;2023-12-22T01:30:48;99123.03;;;5.59;100.00
11525;BME280;5819;49.648;8.330;2023-12-22T01:33:16;99109.03;;;6.05;100.00
11525;BME280;5819;49.648;8.330;2023-12-22T01:35:46;99132.97;;;6.08;100.00
11525;BME280;5819;49.648;8.330;2023-12-22T01:38:14;99141.25;;;5.96;100.00
11525;BME280;5819;49.648;8.330;2023-12-22T01:40:43;99133.84;;;5.89;100.00
11525;BME280;5819;49.648;8.330;2023-12-22T01:43:11;99134.69;;;5.68;100.00
11525;BME280;5819;49.648;8.330;2023-12-22T01:45:40;99128.19;;;5.59;100.00
11525;BME280;5819;49.648;8.330;2023-12-22T01:48:10;99137.94;;;5.52;100.00
11525;BME280;5819;49.648;8.330;2023-12-22T01:50:38;99142.25;;;5.52;100.00
11525;BME280;5819;49.648;8.330;2023-12-22T01:53:08;99152.25;;;5.59;100.00
11525;BME280;5819;49.648;8.330;2023-12-22T01:55:35;99143.28;;;5.68;100.00
11525;BME280;5819;49.648;8.330;2023-12-22T01:58:04;99144.78;;;5.94;100.00
11525;BME280;5819;49.648;8.330;2023-12-22T02:00:32;99130.44;;;6.46;100.00
11525;BME280;5819;49.648;8.330;2023-12-22T02:03:00;99131.31;;;6.64;100.00
11525;BME280;5819;49.648;8.330;2023-12-22T02:05:29;99122.00;;;6.78;100.00
11525;BME280;5819;49.648;8.330;2023-12-22T02:07:57;99139.13;;;6.81;100.00
11525;BME280;5819;49.648;8.330;2023-12-22T02:10:26;99128.97;;;6.78;100.00
11525;BME280;5819;49.648;8.330;2023-12-22T02:12:55;99147.91;;;6.95;100.00
11525;BME280;5819;49.648;8.330;2023-12-22T02:15:23;99155.19;;;7.06;100.00
11525;BME280;5819;49.648;8.330;2023-12-22T02:17:55;99151.53;;;7.10;100.00
11525;BME280;5819;49.648;8.330;2023-12-22T02:20:26;99149.75;;;7.29;100.00
11525;BME280;5819;49.648;8.330;2023-12-22T02:22:55;99153.19;;;7.11;100.00
11525;BME280;5819;49.648;8.330;2023-12-22T02:25:23;99140.78;;;7.00;100.00
11525;BME280;5819;49.648;8.330;2023-12-22T02:27:54;99134.16;;;6.95;100.00
11525;BME280;5819;49.648;8.330;2023-12-22T02:30:29;99132.25;;;6.98;100.00
11525;BME280;5819;49.648;8.330;2023-12-22T02:33:01;99144.97;;;7.03;100.00
11525;BME280;5819;49.648;8.330;2023-12-22T02:35:34;99154.22;;;6.90;100.00
11525;BME280;5819;49.648;8.330;2023-12-22T02:38:05;99166.38;;;6.88;100.00
11525;BME280;5819;49.648;8.330;2023-12-22T02:40:34;99153.03;;;6.97;100.00
11525;BME280;5819;49.648;8.330;2023-12-22T02:43:04;99167.72;;;6.78;100.00
11525;BME280;5819;49.648;8.330;2023-12-22T02:45:33;99173.06;;;6.92;100.00
11525;BME280;5819;49.648;8.330;2023-12-22T02:48:01;99158.75;;;6.66;100.00
11525;BME280;5819;49.648;8.330;2023-12-22T02:50:29;99166.28;;;6.33;100.00
11525;BME280;5819;49.648;8.330;2023-12-22T02:52:57;99162.81;;;6.14;100.00
11525;BME280;5819;49.648;8.330;2023-12-22T02:55:26;99160.03;;;6.19;100.00
11525;BME280;5819;49.648;8.330;2023-12-22T02:57:54;99155.38;;;6.27;100.00
11525;BME280;5819;49.648;8.330;2023-12-22T03:00:22;99163.75;;;6.13;100.00
11525;BME280;5819;49.648;8.330;2023-12-22T03:02:50;99152.59;;;6.13;100.00
11525;BME280;5819;49.648;8.330;2023-12-22T03:05:18;99145.78;;;6.10;100.00
11525;BME280;5819;49.648;8.330;2023-12-22T03:07:46;99141.22;;;6.17;100.00
11525;BME280;5819;49.648;8.330;2023-12-22T03:10:15;99151.03;;;6.08;100.00
11525;BME280;5819;49.648;8.330;2023-12-22T03:12:45;99149.63;;;6.01;100.00
11525;BME280;5819;49.648;8.330;2023-12-22T03:15:13;99145.94;;;6.07;100.00
11525;BME280;5819;49.648;8.330;2023-12-22T03:17:41;99149.63;;;6.01;100.00
11525;BME280;5819;49.648;8.330;2023-12-22T03:20:09;99163.28;;;6.03;100.00
11525;BME280;5819;49.648;8.330;2023-12-22T03:22:37;99162.00;;;6.14;100.00
11525;BME280;5819;49.648;8.330;2023-12-22T03:25:06;99179.09;;;6.16;100.00
11525;BME280;5819;49.648;8.330;2023-12-22T03:27:34;99168.88;;;6.33;100.00
11525;BME280;5819;49.648;8.330;2023-12-22T03:30:04;99183.09;;;6.23;100.00
11525;BME280;5819;49.648;8.330;2023-12-22T03:32:31;99178.59;;;6.08;100.00
11525;BME280;5819;49.648;8.330;2023-12-22T03:34:59;99154.19;;;5.95;100.00
11525;BME280;5819;49.648;8.330;2023-12-22T03:37:28;99156.06;;;5.91;100.00
11525;BME280;5819;49.648;8.330;2023-12-22T03:39:56;99152.50;;;5.94;100.00
11525;BME280;5819;49.648;8.330;2023-12-22T03:42:24;99152.59;;;5.92;100.00
11525;BME280;5819;49.648;8.330;2023-12-22T03:44:52;99144.78;;;5.94;100.00
11525;BME280;5819;49.648;8.330;2023-12-22T03:47:21;99165.31;;;5.97;100.00
11525;BME280;5819;49.648;8.330;2023-12-22T03:49:49;99167.88;;;5.97;100.00
11525;BME280;5819;49.648;8.330;2023-12-22T03:52:17;99150.91;;;5.91;100.00
11525;BME280;5819;49.648;8.330;2023-12-22T03:54:46;99165.13;;;6.01;100.00
11525;BME280;5819;49.648;8.330;2023-12-22T03:57:13;99156.94;;;6.10;100.00
11525;BME280;5819;49.648;8.330;2023-12-22T03:59:41;99171.94;;;6.02;100.00
11525;BME280;5819;49.648;8.330;2023-12-22T04:02:10;99196.09;;;6.01;100.00
11525;BME280;5819;49.648;8.330;2023-12-22T04:04:39;99202.84;;;6.04;100.00
11525;BME280;5819;49.648;8.330;2023-12-22T04:07:07;99218.72;;;6.15;100.00
11525;BME280;5819;49.648;8.330;2023-12-22T04:09:36;99233.56;;;6.10;100.00
11525;BME280;5819;49.648;8.330;2023-12-22T04:12:04;99207.63;;;6.33;100.00
11525;BME280;5819;49.648;8.330;2023-12-22T04:14:32;99219.00;;;6.09;100.00
11525;BME280;5819;49.648;8.330;2023-12-22T04:17:00;99213.75;;;6.10;100.00
11525;BME280;5819;49.648;8.330;2023-12-22T04:19:28;99233.53;;;5.90;100.00
11525;BME280;5819;49.648;8.330;2023-12-22T04:21:57;99232.09;;;6.04;100.00
11525;BME280;5819;49.648;8.330;2023-12-22T04:24:25;99231.81;;;5.90;100.00
11525;BME280;5819;49.648;8.330;2023-12-22T04:26:53;99213.31;;;5.79;100.00
11525;BME280;5819;49.648;8.330;2023-12-22T04:29:21;99211.13;;;5.70;100.00
11525;BME280;5819;49.648;8.330;2023-12-22T04:31:49;99212.22;;;5.64;100.00
11525;BME280;5819;49.648;8.330;2023-12-22T04:34:17;99208.97;;;5.59;100.00
11525;BME280;5819;49.648;8.330;2023-12-22T04:36:44;99229.63;;;5.59;100.00
11525;BME280;5819;49.648;8.330;2023-12-22T04:39:15;99229.66;;;5.58;100.00
11525;BME280;5819;49.648;8.330;2023-12-22T04:41:43;99215.84;;;5.60;100.00
11525;BME280;5819;49.648;8.330;2023-12-22T04:44:10;99223.50;;;5.62;100.00
11525;BME280;5819;49.648;8.330;2023-12-22T04:46:38;99218.94;;;5.69;100.00
11525;BME280;5819;49.648;8.330;2023-12-22T04:49:06;99214.34;;;5.75;100.00
11525;BME280;5819;49.648;8.330;2023-12-22T04:51:34;99235.59;;;5.82;100.00
11525;BME280;5819;49.648;8.330;2023-12-22T04:54:02;99230.38;;;5.83;100.00
11525;BME280;5819;49.648;8.330;2023-12-22T04:56:31;99237.25;;;5.83;100.00
11525;BME280;5819;49.648;8.330;2023-12-22T04:58:59;99235.59;;;5.82;100.00
11525;BME280;5819;49.648;8.330;2023-12-22T05:01:28;99225.56;;;6.16;100.00
11525;BME280;5819;49.648;8.330;2023-12-22T05:03:56;99229.47;;;6.45;100.00
11525;BME280;5819;49.648;8.330;2023-12-22T05:06:23;99227.41;;;6.72;100.00
11525;BME280;5819;49.648;8.330;2023-12-22T05:08:51;99217.03;;;6.73;100.00
11525;BME280;5819;49.648;8.330;2023-12-22T05:11:19;99209.75;;;6.81;100.00
11525;BME280;5819;49.648;8.330;2023-12-22T05:13:48;99223.63;;;6.79;100.00
11525;BME280;5819;49.648;8.330;2023-12-22T05:16:16;99236.22;;;6.68;100.00
11525;BME280;5819;49.648;8.330;2023-12-22T05:18:44;99240.06;;;6.78;100.00
11525;BME280;5819;49.648;8.330;2023-12-22T05:21:12;99263.09;;;6.64;100.00
11525;BME280;5819;49.648;8.330;2023-12-22T05:23:41;99261.53;;;6.59;100.00
11525;BME280;5819;49.648;8.330;2023-12-22T05:26:09;99261.19;;;6.48;100.00
11525;BME280;5819;49.648;8.330;2023-12-22T05:28:37;99268.03;;;6.49;100.00
11525;BME280;5819;49.648;8.330;2023-12-22T05:31:06;99263.47;;;6.54;100.00
11525;BME280;5819;49.648;8.330;2023-12-22T05:33:35;99267.25;;;6.47;100.00
11525;BME280;5819;49.648;8.330;2023-12-22T05:36:03;99253.75;;;6.80;100.00
11525;BME280;5819;49.648;8.330;2023-12-22T05:38:32;99244.56;;;6.54;100.00
11525;BME280;5819;49.648;8.330;2023-12-22T05:40:59;99255.13;;;6.49;100.00
11525;BME280;5819;49.648;8.330;2023-12-22T05:43:28;99263.44;;;6.36;100.00
11525;BME280;5819;49.648;8.330;2023-12-22T05:45:56;99248.09;;;6.72;100.00
11525;BME280;5819;49.648;8.330;2023-12-22T05:48:26;99235.66;;;6.61;100.00
11525;BME280;5819;49.648;8.330;2023-12-22T05:50:56;99252.19;;;6.57;100.00
11525;BME280;5819;49.648;8.330;2023-12-22T05:53:24;99236.56;;;6.60;100.00
11525;BME280;5819;49.648;8.330;2023-12-22T05:55:52;99225.13;;;6.66;100.00
11525;BME280;5819;49.648;8.330;2023-12-22T05:58:19;99237.34;;;6.81;100.00
11525;BME280;5819;49.648;8.330;2023-12-22T06:00:47;99241.81;;;6.77;100.00
11525;BME280;5819;49.648;8.330;2023-12-22T06:03:15;99224.00;;;6.90;100.00
11525;BME280;5819;49.648;8.330;2023-12-22T06:05:45;99243.50;;;6.97;100.00
11525;BME280;5819;49.648;8.330;2023-12-22T06:08:14;99246.44;;;6.89;100.00
11525;BME280;5819;49.648;8.330;2023-12-22T06:10:42;99242.16;;;6.88;100.00
11525;BME280;5819;49.648;8.330;2023-12-22T06:13:11;99253.91;;;6.95;100.00
11525;BME280;5819;49.648;8.330;2023-12-22T06:15:39;99247.34;;;6.88;100.00
11525;BME280;5819;49.648;8.330;2023-12-22T06:18:07;99247.84;;;6.96;100.00
11525;BME280;5819;49.648;8.330;2023-12-22T06:20:35;99249.66;;;7.13;100.00
11525;BME280;5819;49.648;8.330;2023-12-22T06:23:05;99245.81;;;7.22;100.00
11525;BME280;5819;49.648;8.330;2023-12-22T06:25:33;99249.94;;;7.26;100.00
11525;BME280;5819;49.648;8.330;2023-12-22T06:28:02;99262.56;;;7.13;100.00
11525;BME280;5819;49.648;8.330;2023-12-22T06:30:30;99250.56;;;7.48;100.00
11525;BME280;5819;49.648;8.330;2023-12-22T06:32:58;99248.06;;;7.46;100.00
11525;BME280;5819;49.648;8.330;2023-12-22T06:35:28;99252.94;;;7.52;100.00
11525;BME280;5819;49.648;8.330;2023-12-22T06:37:58;99267.25;;;7.60;100.00
11525;BME280;5819;49.648;8.330;2023-12-22T06:40:32;99258.44;;;7.64;100.00
11525;BME280;5819;49.648;8.330;2023-12-22T06:43:00;99265.25;;;7.66;100.00
11525;BME280;5819;49.648;8.330;2023-12-22T06:45:28;99278.41;;;7.62;100.00
11525;BME280;5819;49.648;8.330;2023-12-22T06:47:56;99256.53;;;7.67;100.00
11525;BME280;5819;49.648;8.330;2023-12-22T06:50:24;99267.56;;;7.89;100.00
11525;BME280;5819;49.648;8.330;2023-12-22T06:52:52;99277.41;;;7.64;100.00
11525;BME280;5819;49.648;8.330;2023-12-22T06:55:20;99283.47;;;7.63;100.00
11525;BME280;5819;49.648;8.330;2023-12-22T06:57:50;99287.22;;;7.75;100.00
11525;BME280;5819;49.648;8.330;2023-12-22T07:00:18;99296.78;;;7.56;100.00
11525;BME280;5819;49.648;8.330;2023-12-22T07:02:45;99301.31;;;7.50;100.00
11525;BME280;5819;49.648;8.330;2023-12-22T07:05:30;99301.06;;;7.57;100.00
11525;BME280;5819;49.648;8.330;2023-12-22T07:07:58;99309.56;;;7.59;100.00
11525;BME280;5819;49.648;8.330;2023-12-22T07:10:26;99310.34;;;7.61;100.00
11525;BME280;5819;49.648;8.330;2023-12-22T07:12:55;99308.50;;;7.45;100.00
11525;BME280;5819;49.648;8.330;2023-12-22T07:15:23;99314.16;;;7.53;100.00
11525;BME280;5819;49.648;8.330;2023-12-22T07:17:51;99314.63;;;7.43;100.00
11525;BME280;5819;49.648;8.330;2023-12-22T07:20:19;99318.00;;;7.45;100.00
11525;BME280;5819;49.648;8.330;2023-12-22T07:22:47;99335.81;;;7.51;100.00
11525;BME280;5819;49.648;8.330;2023-12-22T07:25:15;99320.97;;;7.54;100.00
11525;BME280;5819;49.648;8.330;2023-12-22T07:27:45;99316.91;;;7.68;100.00
11525;BME280;5819;49.648;8.330;2023-12-22T07:30:16;99316.69;;;7.72;100.00
11525;BME280;5819;49.648;8.330;2023-12-22T07:32:44;99329.22;;;7.63;100.00
11525;BME280;5819;49.648;8.330;2023-12-22T07:35:14;99337.28;;;7.57;100.00
11525;BME280;5819;49.648;8.330;2023-12-22T07:37:44;99331.81;;;7.63;100.00
11525;BME280;5819;49.648;8.330;2023-12-22T07:40:12;99338.41;;;7.70;100.00
11525;BME280;5819;49.648;8.330;2023-12-22T07:42:40;99336.19;;;7.79;100.00
11525;BME280;5819;49.648;8.330;2023-12-22T07:45:08;99347.28;;;7.64;100.00
11525;BME280;5819;49.648;8.330;2023-12-22T07:47:41;99363.50;;;7.68;100.00
11525;BME280;5819;49.648;8.330;2023-12-22T07:50:09;99355.16;;;7.80;100.00
11525;BME280;5819;49.648;8.330;2023-12-22T07:52:37;99365.31;;;7.84;100.00
11525;BME280;5819;49.648;8.330;2023-12-22T07:55:08;99355.69;;;7.86;100.00
11525;BME280;5819;49.648;8.330;2023-12-22T07:57:37;99354.16;;;7.82;100.00
11525;BME280;5819;49.648;8.330;2023-12-22T08:00:06;99362.38;;;7.73;100.00
11525;BME280;5819;49.648;8.330;2023-12-22T08:02:38;99361.53;;;7.73;100.00
11525;BME280;5819;49.648;8.330;2023-12-22T08:05:08;99362.41;;;7.90;100.00
11525;BME280;5819;49.648;8.330;2023-12-22T08:07:36;99359.28;;;7.84;100.00
11525;BME280;5819;49.648;8.330;2023-12-22T08:10:05;99359.28;;;7.84;100.00
11525;BME280;5819;49.648;8.330;2023-12-22T08:12:33;99365.78;;;7.92;100.00
11525;BME280;5819;49.648;8.330;2023-12-22T08:15:02;99352.69;;;7.95;100.00
11525;BME280;5819;49.648;8.330;2023-12-22T08:17:30;99352.31;;;8.03;100.00
11525;BME280;5819;49.648;8.330;2023-12-22T08:19:57;99343.47;;;7.90;100.00
11525;BME280;5819;49.648;8.330;2023-12-22T08:22:38;99335.34;;;7.97;100.00
11525;BME280;5819;49.648;8.330;2023-12-22T08:25:11;99349.00;;;7.82;100.00
11525;BME280;5819;49.648;8.330;2023-12-22T08:27:40;99337.41;;;8.08;100.00
11525;BME280;5819;49.648;8.330;2023-12-22T08:30:09;99354.53;;;7.93;100.00
11525;BME280;5819;49.648;8.330;2023-12-22T08:32:37;99361.13;;;7.99;100.00
11525;BME280;5819;49.648;8.330;2023-12-22T08:35:06;99354.47;;;8.12;100.00
11525;BME280;5819;49.648;8.330;2023-12-22T08:37:35;99364.66;;;7.98;100.00
11525;BME280;5819;49.648;8.330;2023-12-22T08:40:06;99367.53;;;7.92;100.00
11525;BME280;5819;49.648;8.330;2023-12-22T08:42:34;99378.66;;;7.94;100.00
11525;BME280;5819;49.648;8.330;2023-12-22T08:45:02;99373.50;;;7.94;100.00
11525;BME280;5819;49.648;8.330;2023-12-22T08:47:32;99362.03;;;8.17;100.00
11525;BME280;5819;49.648;8.330;2023-12-22T08:50:00;99362.03;;;8.17;100.00
11525;BME280;5819;49.648;8.330;2023-12-22T08:52:30;99367.09;;;8.01;100.00
11525;BME280;5819;49.648;8.330;2023-12-22T08:54:58;99356.13;;;7.96;100.00
11525;BME280;5819;49.648;8.330;2023-12-22T08:57:27;99354.00;;;8.04;100.00
11525;BME280;5819;49.648;8.330;2023-12-22T08:59:56;99352.25;;;8.05;100.00
11525;BME280;5819;49.648;8.330;2023-12-22T09:02:23;99353.25;;;8.02;100.00
11525;BME280;5819;49.648;8.330;2023-12-22T09:04:53;99355.16;;;8.16;100.00
11525;BME280;5819;49.648;8.330;2023-12-22T09:07:20;99351.34;;;8.06;100.00
11525;BME280;5819;49.648;8.330;2023-12-22T09:09:49;99353.72;;;8.10;100.00
11525;BME280;5819;49.648;8.330;2023-12-22T09:12:17;99360.06;;;8.22;100.00
11525;BME280;5819;49.648;8.330;2023-12-22T09:14:46;99363.97;;;8.12;100.00
11525;BME280;5819;49.648;8.330;2023-12-22T09:17:13;99359.84;;;8.26;100.00
11525;BME280;5819;49.648;8.330;2023-12-22T09:19:43;99359.50;;;8.15;100.00
11525;BME280;5819;49.648;8.330;2023-12-22T09:22:11;99364.16;;;8.26;100.00
11525;BME280;5819;49.648;8.330;2023-12-22T09:24:39;99366.88;;;8.41;100.00
11525;BME280;5819;49.648;8.330;2023-12-22T09:27:07;99354.81;;;8.40;100.00
11525;BME280;5819;49.648;8.330;2023-12-22T09:29:36;99364.28;;;8.41;100.00
11525;BME280;5819;49.648;8.330;2023-12-22T09:32:05;99361.06;;;8.36;100.00
11525;BME280;5819;49.648;8.330;2023-12-22T09:34:33;99355.56;;;8.42;100.00
11525;BME280;5819;49.648;8.330;2023-12-22T09:37:01;99360.63;;;8.45;100.00
11525;BME280;5819;49.648;8.330;2023-12-22T09:39:30;99354.06;;;8.56;100.00
11525;BME280;5819;49.648;8.330;2023-12-22T09:41:57;99357.25;;;8.61;100.00
11525;BME280;5819;49.648;8.330;2023-12-22T09:44:31;99347.81;;;8.60;100.00
11525;BME280;5819;49.648;8.330;2023-12-22T09:47:05;99353.31;;;8.54;100.00
11525;BME280;5819;49.648;8.330;2023-12-22T09:49:34;99346.00;;;8.62;100.00
11525;BME280;5819;49.648;8.330;2023-12-22T09:52:02;99355.06;;;8.70;100.00
11525;BME280;5819;49.648;8.330;2023-12-22T09:54:32;99353.28;;;8.71;100.00
11525;BME280;5819;49.648;8.330;2023-12-22T09:57:00;99339.50;;;8.70;100.00
11525;BME280;5819;49.648;8.330;2023-12-22T09:59:47;99338.31;;;8.93;100.00
11525;BME280;5819;49.648;8.330;2023-12-22T10:02:18;99343.06;;;8.85;100.00
11525;BME280;5819;49.648;8.330;2023-12-22T10:04:45;99327.47;;;9.02;100.00
11525;BME280;5819;49.648;8.330;2023-12-22T10:07:16;99333.28;;;8.90;100.00
11525;BME280;5819;49.648;8.330;2023-12-22T10:09:44;99322.81;;;8.91;100.00
11525;BME280;5819;49.648;8.330;2023-12-22T10:12:14;99327.28;;;9.05;100.00
11525;BME280;5819;49.648;8.330;2023-12-22T10:14:42;99327.69;;;8.98;100.00
11525;BME280;5819;49.648;8.330;2023-12-22T10:17:10;99326.41;;;8.89;100.00
11525;BME280;5819;49.648;8.330;2023-12-22T10:19:40;99313.66;;;9.02;100.00
11525;BME280;5819;49.648;8.330;2023-12-22T10:22:08;99321.16;;;8.90;100.00
11525;BME280;5819;49.648;8.330;2023-12-22T10:24:39;99307.78;;;8.98;100.00
11525;BME280;5819;49.648;8.330;2023-12-22T10:27:10;99311.38;;;8.96;100.00
11525;BME280;5819;49.648;8.330;2023-12-22T10:29:39;99315.88;;;8.92;100.00
11525;BME280;5819;49.648;8.330;2023-12-22T10:32:07;99313.81;;;8.99;100.00
11525;BME280;5819;49.648;8.330;2023-12-22T10:34:36;99312.31;;;8.95;100.00
11525;BME280;5819;49.648;8.330;2023-12-22T10:37:06;99304.59;;;8.93;100.00
11525;BME280;5819;49.648;8.330;2023-12-22T10:39:36;99306.81;;;8.83;100.00
11525;BME280;5819;49.648;8.330;2023-12-22T10:42:04;99295.53;;;8.84;100.00
11525;BME280;5819;49.648;8.330;2023-12-22T10:44:32;99299.72;;;8.87;100.00
11525;BME280;5819;49.648;8.330;2023-12-22T10:47:01;99289.31;;;9.04;100.00
11525;BME280;5819;49.648;8.330;2023-12-22T10:49:30;99290.72;;;8.94;100.00
11525;BME280;5819;49.648;8.330;2023-12-22T10:51:59;99284.16;;;8.87;100.00
11525;BME280;5819;49.648;8.330;2023-12-22T10:54:29;99284.94;;;8.89;100.00
11525;BME280;5819;49.648;8.330;2023-12-22T10:56:58;99281.25;;;8.93;100.00
11525;BME280;5819;49.648;8.330;2023-12-22T10:59:28;99273.78;;;8.87;100.00
11525;BME280;5819;49.648;8.330;2023-12-22T11:01:58;99270.84;;;9.10;100.00
11525;BME280;5819;49.648;8.330;2023-12-22T11:04:30;99270.66;;;8.98;100.00
11525;BME280;5819;49.648;8.330;2023-12-22T11:07:03;99261.19;;;8.97;100.00
11525;BME280;5819;49.648;8.330;2023-12-22T11:09:34;99253.16;;;9.01;100.00
11525;BME280;5819;49.648;8.330;2023-12-22T11:12:04;99250.88;;;9.11;100.00
11525;BME280;5819;49.648;8.330;2023-12-22T11:14:34;99262.34;;;9.07;100.00
11525;BME280;5819;49.648;8.330;2023-12-22T11:17:02;99255.56;;;9.04;100.00
11525;BME280;5819;49.648;8.330;2023-12-22T11:19:34;99254.75;;;9.04;100.00
11525;BME280;5819;49.648;8.330;2023-12-22T11:22:04;99240.69;;;8.92;100.00
11525;BME280;5819;49.648;8.330;2023-12-22T11:24:39;99244.38;;;8.71;100.00
11525;BME280;5819;49.648;8.330;2023-12-22T11:30:18;99233.00;;;8.58;100.00
11525;BME280;5819;49.648;8.330;2023-12-22T11:32:49;99226.09;;;8.74;100.00
11525;BME280;5819;49.648;8.330;2023-12-22T11:35:17;99226.31;;;8.54;100.00
11525;BME280;5819;49.648;8.330;2023-12-22T11:37:46;99226.72;;;8.46;100.00
11525;BME280;5819;49.648;8.330;2023-12-22T11:40:18;99218.94;;;8.46;100.00
11525;BME280;5819;49.648;8.330;2023-12-22T11:42:49;99211.31;;;8.43;100.00
11525;BME280;5819;49.648;8.330;2023-12-22T11:45:18;99204.03;;;8.34;100.00
11525;BME280;5819;49.648;8.330;2023-12-22T11:47:50;99189.56;;;8.30;100.00
11525;BME280;5819;49.648;8.330;2023-12-22T11:50:28;99207.00;;;8.26;100.00
11525;BME280;5819;49.648;8.330;2023-12-22T11:53:17;99198.16;;;8.30;100.00
11525;BME280;5819;49.648;8.330;2023-12-22T11:56:03;99199.53;;;8.37;100.00
11525;BME280;5819;49.648;8.330;2023-12-22T11:58:33;99184.88;;;8.36;100.00
11525;BME280;5819;49.648;8.330;2023-12-22T12:01:02;99181.16;;;8.42;100.00
11525;BME280;5819;49.648;8.330;2023-12-22T12:03:30;99168.97;;;8.60;100.00
11525;BME280;5819;49.648;8.330;2023-12-22T12:06:22;99169.31;;;8.69;100.00
11525;BME280;5819;49.648;8.330;2023-12-22T12:08:58;99172.41;;;8.76;100.00
11525;BME280;5819;49.648;8.330;2023-12-22T12:14:31;99156.28;;;8.86;100.00
11525;BME280;5819;49.648;8.330;2023-12-22T12:17:05;99145.06;;;8.86;100.00
11525;BME280;5819;49.648;8.330;2023-12-22T12:19:34;99139.53;;;8.92;100.00
11525;BME280;5819;49.648;8.330;2023-12-22T12:22:04;99140.78;;;9.01;100.00
11525;BME280;5819;49.648;8.330;2023-12-22T12:24:32;99139.09;;;9.00;100.00
11525;BME280;5819;49.648;8.330;2023-12-22T12:31:47;99128.88;;;9.12;100.00
11525;BME280;5819;49.648;8.330;2023-12-22T12:34:18;99124.28;;;9.17;100.00
11525;BME280;5819;49.648;8.330;2023-12-22T12:36:48;99126.97;;;9.16;100.00
11525;BME280;5819;49.648;8.330;2023-12-22T12:39:17;99128.97;;;9.26;100.00
11525;BME280;5819;49.648;8.330;2023-12-22T12:41:53;99133.78;;;9.32;100.00
11525;BME280;5819;49.648;8.330;2023-12-22T12:44:23;99127.47;;;9.22;100.00
11525;BME280;5819;49.648;8.330;2023-12-22T12:46:53;99121.34;;;9.23;100.00
11525;BME280;5819;49.648;8.330;2023-12-22T12:49:21;99135.41;;;9.19;100.00
11525;BME280;5819;49.648;8.330;2023-12-22T12:51:53;99131.41;;;9.14;100.00
11525;BME280;5819;49.648;8.330;2023-12-22T12:58:19;99128.47;;;9.20;100.00
11525;BME280;5819;49.648;8.330;2023-12-22T13:00:47;99136.66;;;9.12;100.00
11525;BME280;5819;49.648;8.330;2023-12-22T13:03:16;99135.41;;;9.19;100.00
11525;BME280;5819;49.648;8.330;2023-12-22T13:05:44;99127.38;;;9.08;100.00
11525;BME280;5819;49.648;8.330;2023-12-22T13:08:13;99120.59;;;9.21;100.00
11525;BME280;5819;49.648;8.330;2023-12-22T13:10:41;99123.44;;;9.17;100.00
11525;BME280;5819;49.648;8.330;2023-12-22T13:13:09;99117.09;;;9.22;100.00
11525;BME280;5819;49.648;8.330;2023-12-22T13:15:40;99116.31;;;9.20;100.00
11525;BME280;5819;49.648;8.330;2023-12-22T13:18:08;99125.53;;;9.26;100.00
11525;BME280;5819;49.648;8.330;2023-12-22T13:20:38;99124.25;;;9.33;100.00
11525;BME280;5819;49.648;8.330;2023-12-22T13:23:06;99129.84;;;9.41;100.00
11525;BME280;5819;49.648;8.330;2023-12-22T13:25:38;99141.09;;;9.26;100.00
11525;BME280;5819;49.648;8.330;2023-12-22T13:28:06;99133.63;;;9.35;100.00
11525;BME280;5819;49.648;8.330;2023-12-22T13:30:34;99127.00;;;9.46;100.00
11525;BME280;5819;49.648;8.330;2023-12-22T13:33:03;99125.31;;;9.74;100.00
11525;BME280;5819;49.648;8.330;2023-12-22T13:35:31;99130.66;;;9.71;100.00